createdAt,value
2018-08-31T00:00:54.159Z,10.40
2018-08-31T00:01:54.138Z,10.20
2018-08-31T00:02:54.120Z,9.90
2018-08-31T00:03:54.103Z,9.90
2018-08-31T00:04:54.082Z,10.10
2018-08-31T00:05:54.062Z,10.30
2018-08-31T00:06:54.044Z,9.70
2018-08-31T00:07:54.027Z,10.10
2018-08-31T00:08:54.004Z,9.80
2018-08-31T00:09:53.995Z,9.00
2018-08-31T00:10:53.965Z,9.40
2018-08-31T00:11:53.946Z,9.90
2018-08-31T00:12:53.927Z,10.00
2018-08-31T00:13:53.908Z,10.40
2018-08-31T00:14:53.892Z,9.80
2018-08-31T00:15:53.869Z,9.70
2018-08-31T00:16:53.850Z,10.20
2018-08-31T00:17:53.831Z,10.30
2018-08-31T00:18:53.813Z,9.90
2018-08-31T00:19:53.792Z,9.60
2018-08-31T00:20:53.774Z,9.90
2018-08-31T00:21:53.757Z,8.80
2018-08-31T00:22:53.736Z,10.00
2018-08-31T00:23:53.716Z,9.50
2018-08-31T00:24:53.700Z,9.90
2018-08-31T00:25:53.677Z,9.90
2018-08-31T00:26:53.659Z,10.10
2018-08-31T00:27:53.639Z,9.70
2018-08-31T00:28:53.620Z,9.20
2018-08-31T00:29:53.602Z,9.10
2018-08-31T00:30:53.582Z,9.00
2018-08-31T00:31:53.563Z,9.50
2018-08-31T00:32:53.543Z,9.70
2018-08-31T00:33:53.527Z,9.50
2018-08-31T00:34:53.505Z,9.30
2018-08-31T00:35:53.485Z,9.70
2018-08-31T00:36:53.467Z,8.70
2018-08-31T00:37:53.448Z,8.80
2018-08-31T00:38:53.429Z,10.50
2018-08-31T00:39:53.410Z,9.60
2018-08-31T00:40:53.391Z,8.80
2018-08-31T00:41:53.371Z,9.40
2018-08-31T00:42:53.354Z,9.40
2018-08-31T00:43:53.336Z,9.70
2018-08-31T00:44:53.315Z,10.00
2018-08-31T00:45:53.295Z,9.70
2018-08-31T00:46:53.277Z,9.80
2018-08-31T00:47:53.256Z,9.60
2018-08-31T00:48:53.237Z,9.50
2018-08-31T00:49:53.218Z,8.90
2018-08-31T00:50:53.199Z,8.90
2018-08-31T00:51:53.181Z,9.10
2018-08-31T00:52:53.162Z,9.00
2018-08-31T00:53:53.141Z,9.70
2018-08-31T00:54:53.124Z,9.20
2018-08-31T00:55:53.104Z,9.90
2018-08-31T00:56:53.084Z,8.80
2018-08-31T00:57:53.068Z,9.80
2018-08-31T00:58:53.047Z,9.60
2018-08-31T00:59:53.027Z,9.80
2018-08-31T01:00:53.008Z,9.60
2018-08-31T01:01:52.988Z,9.90
2018-08-31T01:02:52.970Z,9.80
2018-08-31T01:03:52.948Z,9.10
2018-08-31T01:04:52.930Z,10.10
2018-08-31T01:05:54.413Z,9.70
2018-08-31T01:06:52.891Z,9.30
2018-08-31T01:07:52.871Z,9.60
2018-08-31T01:08:52.852Z,9.20
2018-08-31T01:09:52.834Z,9.60
2018-08-31T01:10:52.816Z,9.80
2018-08-31T01:11:52.794Z,9.60
2018-08-31T01:12:52.775Z,9.10
2018-08-31T01:13:52.757Z,9.60
2018-08-31T01:14:52.737Z,9.30
2018-08-31T01:15:52.718Z,9.80
2018-08-31T01:16:52.702Z,10.30
2018-08-31T01:17:52.679Z,9.40
2018-08-31T01:18:52.660Z,8.80
2018-08-31T01:19:52.641Z,9.80
2018-08-31T01:20:52.621Z,9.60
2018-08-31T01:21:52.602Z,9.60
2018-08-31T01:22:52.588Z,10.30
2018-08-31T01:23:52.563Z,10.00
2018-08-31T01:24:52.545Z,9.40
2018-08-31T01:25:52.525Z,10.10
2018-08-31T01:26:52.506Z,9.40
2018-08-31T01:27:52.487Z,9.00
2018-08-31T01:28:52.468Z,9.20
2018-08-31T01:29:52.448Z,9.10
2018-08-31T01:30:52.443Z,9.30
2018-08-31T01:31:52.409Z,9.30
2018-08-31T01:32:52.395Z,8.60
2018-08-31T01:33:52.371Z,8.90
2018-08-31T01:34:52.352Z,9.30
2018-08-31T01:35:52.333Z,9.00
2018-08-31T01:36:52.313Z,8.60
2018-08-31T01:37:52.293Z,9.40
2018-08-31T01:38:52.275Z,8.60
2018-08-31T01:39:52.256Z,8.90
2018-08-31T01:40:52.237Z,9.10
2018-08-31T01:41:52.217Z,9.10
2018-08-31T01:42:52.198Z,9.20
2018-08-31T01:43:52.178Z,9.40
2018-08-31T01:44:52.158Z,9.80
2018-08-31T01:45:52.141Z,9.30
2018-08-31T01:46:52.120Z,9.20
2018-08-31T01:47:52.102Z,8.70
2018-08-31T01:48:52.081Z,10.00
2018-08-31T01:49:52.061Z,10.00
2018-08-31T01:50:52.047Z,9.50
2018-08-31T01:51:52.023Z,9.30
2018-08-31T01:52:52.105Z,9.80
2018-08-31T01:53:51.986Z,9.30
2018-08-31T01:54:51.966Z,9.20
2018-08-31T01:55:51.951Z,9.60
2018-08-31T01:56:51.926Z,9.80
2018-08-31T01:57:51.908Z,9.30
2018-08-31T01:58:51.888Z,9.60
2018-08-31T01:59:51.868Z,9.50
2018-08-31T02:00:51.848Z,9.90
2018-08-31T02:01:51.831Z,10.00
2018-08-31T02:02:51.814Z,10.00
2018-08-31T02:03:51.792Z,9.50
2018-08-31T02:04:52.522Z,9.40
2018-08-31T02:05:51.752Z,9.80
2018-08-31T02:06:51.734Z,10.00
2018-08-31T02:07:51.715Z,9.60
2018-08-31T02:08:51.694Z,10.20
2018-08-31T02:09:51.676Z,9.90
2018-08-31T02:10:51.656Z,10.20
2018-08-31T02:11:51.636Z,9.60
2018-08-31T02:12:51.620Z,10.40
2018-08-31T02:13:51.598Z,10.40
2018-08-31T02:14:51.579Z,9.50
2018-08-31T02:15:51.559Z,10.00
2018-08-31T02:16:51.542Z,10.00
2018-08-31T02:17:51.521Z,9.60
2018-08-31T02:18:51.502Z,9.60
2018-08-31T02:19:51.481Z,9.70
2018-08-31T02:20:51.462Z,9.50
2018-08-31T02:21:51.443Z,9.40
2018-08-31T02:22:51.424Z,9.40
2018-08-31T02:23:51.405Z,9.80
2018-08-31T02:24:51.385Z,9.60
2018-08-31T02:25:51.366Z,9.90
2018-08-31T02:26:51.348Z,9.90
2018-08-31T02:27:51.328Z,10.20
2018-08-31T02:28:51.313Z,9.90
2018-08-31T02:29:51.288Z,9.40
2018-08-31T02:30:51.271Z,9.70
2018-08-31T02:31:51.249Z,9.60
2018-08-31T02:32:51.230Z,9.20
2018-08-31T02:33:51.211Z,9.90
2018-08-31T02:34:51.192Z,9.60
2018-08-31T02:35:51.173Z,10.20
2018-08-31T02:36:51.154Z,9.90
2018-08-31T02:37:51.134Z,9.40
2018-08-31T02:38:51.115Z,10.20
2018-08-31T02:39:51.095Z,10.20
2018-08-31T02:40:51.076Z,9.40
2018-08-31T02:41:51.057Z,9.70
2018-08-31T02:42:51.039Z,9.70
2018-08-31T02:43:51.018Z,9.30
2018-08-31T02:44:50.999Z,9.90
2018-08-31T02:45:50.980Z,9.80
2018-08-31T02:46:50.960Z,9.70
2018-08-31T02:47:50.944Z,10.50
2018-08-31T02:48:50.925Z,9.50
2018-08-31T02:49:50.903Z,9.50
2018-08-31T02:50:50.885Z,9.10
2018-08-31T02:51:50.865Z,9.60
2018-08-31T02:52:50.845Z,9.60
2018-08-31T02:53:50.828Z,10.70
2018-08-31T02:54:50.807Z,10.00
2018-08-31T02:55:50.787Z,9.30
2018-08-31T02:56:50.767Z,9.10
2018-08-31T02:57:50.753Z,9.70
2018-08-31T02:58:50.731Z,10.00
2018-08-31T02:59:50.709Z,9.90
2018-08-31T03:00:50.691Z,9.50
2018-08-31T03:01:50.671Z,9.70
2018-08-31T03:02:50.654Z,9.80
2018-08-31T03:03:50.633Z,9.60
2018-08-31T03:04:50.613Z,9.50
2018-08-31T03:05:50.598Z,10.00
2018-08-31T03:06:50.577Z,9.00
2018-08-31T03:07:50.556Z,9.60
2018-08-31T03:08:50.537Z,10.00
2018-08-31T03:09:50.518Z,9.50
2018-08-31T03:10:50.497Z,9.80
2018-08-31T03:11:50.477Z,9.60
2018-08-31T03:12:50.458Z,10.00
2018-08-31T03:13:50.439Z,9.40
2018-08-31T03:14:50.420Z,9.50
2018-08-31T03:15:50.401Z,9.50
2018-08-31T03:16:50.382Z,10.10
2018-08-31T03:17:50.361Z,9.00
2018-08-31T03:18:50.348Z,10.10
2018-08-31T03:19:50.322Z,9.80
2018-08-31T03:20:50.303Z,10.50
2018-08-31T03:21:50.285Z,9.90
2018-08-31T03:22:50.267Z,10.90
2018-08-31T03:23:50.997Z,10.00
2018-08-31T03:24:50.225Z,10.10
2018-08-31T03:25:50.206Z,10.10
2018-08-31T03:26:50.187Z,11.00
2018-08-31T03:27:50.170Z,11.10
2018-08-31T03:28:50.148Z,10.50
2018-08-31T03:29:50.129Z,10.80
2018-08-31T03:30:50.111Z,11.00
2018-08-31T03:31:50.091Z,11.30
2018-08-31T03:32:50.070Z,11.40
2018-08-31T03:33:50.051Z,10.60
2018-08-31T03:34:50.033Z,10.80
2018-08-31T03:35:50.012Z,11.50
2018-08-31T03:36:49.999Z,11.30
2018-08-31T03:37:49.974Z,12.00
2018-08-31T03:38:49.960Z,11.20
2018-08-31T03:39:49.939Z,11.70
2018-08-31T03:40:49.921Z,11.30
2018-08-31T03:41:49.896Z,11.50
2018-08-31T03:42:49.877Z,11.60
2018-08-31T03:43:49.860Z,11.40
2018-08-31T03:44:49.838Z,11.70
2018-08-31T03:45:49.818Z,11.10
2018-08-31T03:46:49.799Z,11.30
2018-08-31T03:47:49.779Z,11.00
2018-08-31T03:48:49.761Z,11.20
2018-08-31T03:49:49.745Z,12.00
2018-08-31T03:50:49.721Z,11.40
2018-08-31T03:51:49.701Z,12.10
2018-08-31T03:52:49.682Z,12.60
2018-08-31T03:53:49.662Z,11.30
2018-08-31T03:54:49.643Z,12.50
2018-08-31T03:55:49.622Z,12.60
2018-08-31T03:56:49.607Z,12.00
2018-08-31T03:57:49.584Z,12.80
2018-08-31T03:58:49.567Z,12.50
2018-08-31T03:59:49.545Z,12.50
2018-08-31T04:00:49.526Z,12.60
2018-08-31T04:01:49.506Z,11.60
2018-08-31T04:02:49.487Z,12.60
2018-08-31T04:03:49.466Z,12.10
2018-08-31T04:04:49.447Z,12.20
2018-08-31T04:05:49.427Z,12.40
2018-08-31T04:06:49.412Z,13.40
2018-08-31T04:07:49.389Z,11.90
2018-08-31T04:08:49.370Z,12.60
2018-08-31T04:09:49.349Z,12.70
2018-08-31T04:10:49.353Z,13.00
2018-08-31T04:11:49.313Z,13.20
2018-08-31T04:12:49.291Z,12.90
2018-08-31T04:13:49.270Z,12.10
2018-08-31T04:14:49.255Z,13.50
2018-08-31T04:15:49.233Z,13.70
2018-08-31T04:16:49.211Z,13.40
2018-08-31T04:17:49.192Z,12.40
2018-08-31T04:18:49.172Z,13.70
2018-08-31T04:19:49.152Z,12.60
2018-08-31T04:20:49.132Z,12.70
2018-08-31T04:21:49.117Z,11.60
2018-08-31T04:22:49.094Z,12.70
2018-08-31T04:23:49.074Z,13.10
2018-08-31T04:24:49.054Z,13.00
2018-08-31T04:25:49.035Z,12.70
2018-08-31T04:26:49.015Z,13.20
2018-08-31T04:27:48.996Z,12.80
2018-08-31T04:28:48.976Z,12.60
2018-08-31T04:29:48.957Z,13.10
2018-08-31T04:30:48.940Z,12.60
2018-08-31T04:31:48.917Z,13.30
2018-08-31T04:32:48.899Z,12.20
2018-08-31T04:33:48.878Z,12.90
2018-08-31T04:34:48.860Z,13.20
2018-08-31T04:35:48.838Z,12.20
2018-08-31T04:36:48.820Z,13.20
2018-08-31T04:37:48.800Z,13.70
2018-08-31T04:38:48.781Z,13.60
2018-08-31T04:39:48.761Z,13.90
2018-08-31T04:40:48.741Z,13.50
2018-08-31T04:41:48.720Z,12.90
2018-08-31T04:42:48.736Z,13.70
2018-08-31T04:43:48.683Z,13.90
2018-08-31T04:44:48.661Z,12.90
2018-08-31T04:45:48.642Z,13.80
2018-08-31T04:46:48.623Z,14.80
2018-08-31T04:47:48.600Z,13.70
2018-08-31T04:48:48.580Z,14.10
2018-08-31T04:49:48.561Z,13.70
2018-08-31T04:50:48.541Z,13.60
2018-08-31T04:51:48.520Z,12.90
2018-08-31T04:52:48.502Z,13.40
2018-08-31T04:53:48.481Z,13.60
2018-08-31T04:54:48.464Z,13.40
2018-08-31T04:55:48.441Z,14.10
2018-08-31T04:56:48.421Z,12.70
2018-08-31T04:57:48.413Z,13.70
2018-08-31T04:58:48.403Z,14.30
2018-08-31T04:59:48.362Z,13.40
2018-08-31T05:00:48.341Z,13.30
2018-08-31T05:01:48.321Z,13.60
2018-08-31T05:02:48.303Z,13.50
2018-08-31T05:03:48.282Z,14.70
2018-08-31T05:04:48.261Z,14.10
2018-08-31T05:05:48.241Z,15.20
2018-08-31T05:06:48.222Z,15.10
2018-08-31T05:07:48.202Z,14.20
2018-08-31T05:08:48.182Z,15.30
2018-08-31T05:09:48.161Z,15.40
2018-08-31T05:10:48.142Z,15.20
2018-08-31T05:11:48.121Z,16.10
2018-08-31T05:12:48.101Z,15.60
2018-08-31T05:13:48.082Z,14.40
2018-08-31T05:14:48.063Z,15.90
2018-08-31T05:15:48.042Z,15.80
2018-08-31T05:16:48.025Z,14.80
2018-08-31T05:17:48.003Z,15.60
2018-08-31T05:18:47.983Z,16.50
2018-08-31T05:19:47.962Z,15.40
2018-08-31T05:20:47.943Z,15.80
2018-08-31T05:21:47.924Z,15.80
2018-08-31T05:22:47.915Z,16.60
2018-08-31T05:23:47.885Z,14.60
2018-08-31T05:24:47.865Z,16.30
2018-08-31T05:25:47.845Z,14.90
2018-08-31T05:26:47.827Z,15.10
2018-08-31T05:27:47.805Z,15.60
2018-08-31T05:28:47.788Z,14.80
2018-08-31T05:29:47.768Z,15.10
2018-08-31T05:30:47.749Z,16.30
2018-08-31T05:31:47.732Z,16.10
2018-08-31T05:32:47.709Z,15.60
2018-08-31T05:33:48.439Z,15.20
2018-08-31T05:34:47.788Z,14.90
2018-08-31T05:35:47.649Z,15.90
2018-08-31T05:36:47.629Z,15.00
2018-08-31T05:37:47.612Z,15.10
2018-08-31T05:38:47.592Z,15.90
2018-08-31T05:39:47.574Z,14.80
2018-08-31T05:40:47.552Z,14.70
2018-08-31T05:41:47.532Z,14.30
2018-08-31T05:42:47.512Z,14.50
2018-08-31T05:43:47.491Z,15.20
2018-08-31T05:44:48.223Z,15.60
2018-08-31T05:45:47.453Z,15.00
2018-08-31T05:46:47.435Z,15.10
2018-08-31T05:47:47.416Z,16.00
2018-08-31T05:48:47.393Z,15.40
2018-08-31T05:49:47.374Z,15.40
2018-08-31T05:50:47.354Z,14.90
2018-08-31T05:51:47.343Z,16.10
2018-08-31T05:52:47.315Z,15.30
2018-08-31T05:53:47.296Z,16.50
2018-08-31T05:54:47.277Z,15.50
2018-08-31T05:55:48.007Z,15.00
2018-08-31T05:56:47.236Z,15.50
2018-08-31T05:57:47.218Z,15.60
2018-08-31T05:58:47.198Z,16.50
2018-08-31T05:59:47.178Z,16.30
2018-08-31T06:00:47.158Z,15.30
2018-08-31T06:01:47.139Z,15.20
2018-08-31T06:02:47.121Z,16.20
2018-08-31T06:03:47.099Z,16.90
2018-08-31T06:04:47.080Z,16.10
2018-08-31T06:05:47.061Z,15.70
2018-08-31T06:06:47.043Z,16.40
2018-08-31T06:07:47.023Z,15.70
2018-08-31T06:08:47.004Z,15.60
2018-08-31T06:09:46.984Z,15.50
2018-08-31T06:10:46.965Z,18.00
2018-08-31T06:11:46.953Z,16.10
2018-08-31T06:12:46.926Z,15.30
2018-08-31T06:13:46.905Z,15.40
2018-08-31T06:14:46.886Z,16.20
2018-08-31T06:15:46.865Z,16.40
2018-08-31T06:16:46.847Z,15.00
2018-08-31T06:17:46.830Z,15.40
2018-08-31T06:18:46.808Z,15.00
2018-08-31T06:19:46.789Z,15.90
2018-08-31T06:20:46.769Z,16.20
2018-08-31T06:21:46.750Z,17.00
2018-08-31T06:22:46.729Z,16.40
2018-08-31T06:23:46.711Z,16.80
2018-08-31T06:24:46.692Z,17.00
2018-08-31T06:25:46.672Z,17.30
2018-08-31T06:26:46.652Z,16.10
2018-08-31T06:27:46.632Z,16.70
2018-08-31T06:28:46.614Z,16.80
2018-08-31T06:29:46.592Z,16.80
2018-08-31T06:30:46.575Z,16.80
2018-08-31T06:31:46.553Z,16.20
2018-08-31T06:32:46.556Z,16.20
2018-08-31T06:33:46.567Z,15.80
2018-08-31T06:34:46.495Z,16.30
2018-08-31T06:35:46.476Z,16.50
2018-08-31T06:36:46.456Z,16.70
2018-08-31T06:37:46.436Z,16.70
2018-08-31T06:38:47.184Z,16.20
2018-08-31T06:39:46.397Z,15.80
2018-08-31T06:40:46.475Z,17.20
2018-08-31T06:41:46.360Z,15.70
2018-08-31T06:42:46.337Z,17.30
2018-08-31T06:43:46.319Z,17.30
2018-08-31T06:44:46.298Z,15.90
2018-08-31T06:45:46.280Z,17.00
2018-08-31T06:46:46.260Z,16.90
2018-08-31T06:47:46.240Z,15.90
2018-08-31T06:48:46.221Z,16.40
2018-08-31T06:49:46.201Z,17.60
2018-08-31T06:50:46.182Z,17.40
2018-08-31T06:51:46.162Z,17.20
2018-08-31T06:52:46.144Z,16.30
2018-08-31T06:53:46.122Z,17.20
2018-08-31T06:54:46.102Z,17.10
2018-08-31T06:55:46.082Z,17.30
2018-08-31T06:56:46.064Z,16.60
2018-08-31T06:57:46.044Z,17.30
2018-08-31T06:58:46.024Z,16.80
2018-08-31T06:59:46.005Z,17.30
2018-08-31T07:00:45.984Z,17.50
2018-08-31T07:01:45.965Z,17.40
2018-08-31T07:02:45.946Z,16.80
2018-08-31T07:03:45.955Z,17.40
2018-08-31T07:04:45.907Z,16.60
2018-08-31T07:05:45.888Z,17.10
2018-08-31T07:06:45.867Z,16.70
2018-08-31T07:07:45.847Z,17.70
2018-08-31T07:08:45.827Z,17.30
2018-08-31T07:09:45.808Z,17.10
2018-08-31T07:10:45.789Z,18.10
2018-08-31T07:11:45.769Z,17.40
2018-08-31T07:12:45.753Z,18.10
2018-08-31T07:13:45.733Z,18.10
2018-08-31T07:14:45.712Z,16.80
2018-08-31T07:15:45.692Z,18.70
2018-08-31T07:16:46.424Z,18.40
2018-08-31T07:17:45.653Z,18.80
2018-08-31T07:18:45.633Z,18.60
2018-08-31T07:19:45.633Z,18.50
2018-08-31T07:20:45.593Z,18.00
2018-08-31T07:21:45.574Z,18.70
2018-08-31T07:22:45.557Z,17.90
2018-08-31T07:23:45.534Z,17.30
2018-08-31T07:24:45.522Z,16.30
2018-08-31T07:25:45.496Z,18.00
2018-08-31T07:26:45.562Z,18.40
2018-08-31T07:27:47.708Z,17.20
2018-08-31T07:28:45.437Z,17.60
2018-08-31T07:29:45.419Z,17.90
2018-08-31T07:30:45.400Z,18.00
2018-08-31T07:31:45.379Z,18.10
2018-08-31T07:32:45.360Z,18.00
2018-08-31T07:33:45.342Z,17.60
2018-08-31T07:34:45.322Z,17.70
2018-08-31T07:35:45.340Z,18.00
2018-08-31T07:36:45.283Z,18.60
2018-08-31T07:37:45.266Z,17.80
2018-08-31T07:38:45.246Z,18.40
2018-08-31T07:39:45.226Z,17.70
2018-08-31T07:40:45.210Z,19.10
2018-08-31T07:41:45.189Z,19.10
2018-08-31T07:42:45.169Z,17.70
2018-08-31T07:43:45.153Z,18.40
2018-08-31T07:44:45.130Z,18.70
2018-08-31T07:45:45.111Z,17.60
2018-08-31T07:46:45.092Z,17.80
2018-08-31T07:47:45.103Z,18.50
2018-08-31T07:48:45.054Z,18.90
2018-08-31T07:49:45.035Z,20.70
2018-08-31T07:50:45.016Z,19.10
2018-08-31T07:51:44.996Z,18.50
2018-08-31T07:52:44.977Z,19.20
2018-08-31T07:53:44.990Z,18.80
2018-08-31T07:54:45.690Z,18.90
2018-08-31T07:55:44.921Z,19.50
2018-08-31T07:56:44.901Z,20.20
2018-08-31T07:57:44.882Z,18.80
2018-08-31T07:58:44.867Z,19.80
2018-08-31T07:59:44.844Z,19.30
2018-08-31T08:00:44.825Z,19.00
2018-08-31T08:01:44.806Z,18.90
2018-08-31T08:02:44.792Z,18.70
2018-08-31T08:03:44.768Z,20.00
2018-08-31T08:04:44.751Z,19.90
2018-08-31T08:05:47.737Z,19.80
2018-08-31T08:06:44.713Z,19.70
2018-08-31T08:07:44.693Z,19.00
2018-08-31T08:08:44.679Z,20.70
2018-08-31T08:09:44.656Z,19.10
2018-08-31T08:10:44.646Z,20.10
2018-08-31T08:11:45.368Z,19.70
2018-08-31T08:12:44.599Z,19.40
2018-08-31T08:13:44.581Z,19.80
2018-08-31T08:14:44.571Z,18.70
2018-08-31T08:15:44.544Z,19.00
2018-08-31T08:16:44.525Z,19.10
2018-08-31T08:17:44.505Z,18.80
2018-08-31T08:18:44.488Z,20.30
2018-08-31T08:19:44.475Z,19.10
2018-08-31T08:20:44.449Z,19.90
2018-08-31T08:21:44.430Z,20.00
2018-08-31T08:22:44.412Z,20.00
2018-08-31T08:23:44.391Z,19.00
2018-08-31T08:24:44.376Z,19.60
2018-08-31T08:25:44.354Z,19.10
2018-08-31T08:26:44.336Z,18.70
2018-08-31T08:27:45.066Z,19.00
2018-08-31T08:28:44.301Z,19.80
2018-08-31T08:29:44.279Z,20.00
2018-08-31T08:30:44.260Z,18.70
2018-08-31T08:31:44.242Z,20.00
2018-08-31T08:32:44.223Z,20.30
2018-08-31T08:33:44.206Z,20.30
2018-08-31T08:34:44.186Z,19.50
2018-08-31T08:35:44.165Z,20.10
2018-08-31T08:36:44.147Z,20.80
2018-08-31T08:37:44.128Z,20.60
2018-08-31T08:38:44.109Z,20.70
2018-08-31T08:39:44.090Z,21.30
2018-08-31T08:40:44.071Z,20.90
2018-08-31T08:41:44.052Z,21.40
2018-08-31T08:42:44.036Z,20.50
2018-08-31T08:43:44.015Z,21.80
2018-08-31T08:44:43.996Z,21.90
2018-08-31T08:45:43.981Z,21.60
2018-08-31T08:46:43.961Z,21.40
2018-08-31T08:47:43.939Z,21.50
2018-08-31T08:48:44.130Z,20.90
2018-08-31T08:49:43.903Z,22.60
2018-08-31T08:50:43.884Z,20.50
2018-08-31T08:51:43.864Z,22.70
2018-08-31T08:52:43.845Z,20.70
2018-08-31T08:53:43.827Z,23.50
2018-08-31T08:54:43.809Z,21.20
2018-08-31T08:55:43.790Z,21.10
2018-08-31T08:56:43.770Z,20.90
2018-08-31T08:57:43.752Z,21.60
2018-08-31T08:58:43.740Z,22.10
2018-08-31T08:59:43.713Z,21.40
2018-08-31T09:00:43.694Z,22.60
2018-08-31T09:01:43.676Z,21.80
2018-08-31T09:02:43.657Z,21.80
2018-08-31T09:03:43.637Z,22.30
2018-08-31T09:04:43.618Z,22.90
2018-08-31T09:05:43.707Z,22.60
2018-08-31T09:06:43.582Z,23.40
2018-08-31T09:07:43.561Z,22.30
2018-08-31T09:08:43.542Z,23.00
2018-08-31T09:09:43.530Z,22.10
2018-08-31T09:10:43.504Z,23.10
2018-08-31T09:11:43.498Z,23.10
2018-08-31T09:12:43.469Z,24.30
2018-08-31T09:13:43.449Z,23.90
2018-08-31T09:14:43.429Z,22.90
2018-08-31T09:15:43.409Z,22.80
2018-08-31T09:16:43.394Z,23.00
2018-08-31T09:17:43.373Z,22.60
2018-08-31T09:18:43.354Z,22.90
2018-08-31T09:19:44.084Z,23.50
2018-08-31T09:20:43.314Z,22.90
2018-08-31T09:21:43.297Z,21.90
2018-08-31T09:22:43.277Z,22.20
2018-08-31T09:23:43.259Z,22.60
2018-08-31T09:24:43.347Z,23.70
2018-08-31T09:25:43.221Z,22.40
2018-08-31T09:26:43.202Z,22.40
2018-08-31T09:27:43.182Z,22.50
2018-08-31T09:28:43.164Z,23.40
2018-08-31T09:29:43.146Z,23.80
2018-08-31T09:30:43.127Z,24.10
2018-08-31T09:31:43.110Z,23.70
2018-08-31T09:32:43.222Z,23.10
2018-08-31T09:33:43.071Z,23.40
2018-08-31T09:34:43.053Z,23.00
2018-08-31T09:35:43.032Z,24.00
2018-08-31T09:36:43.014Z,23.30
2018-08-31T09:37:42.996Z,24.30
2018-08-31T09:38:42.980Z,23.20
2018-08-31T09:39:42.962Z,23.30
2018-08-31T09:40:42.938Z,23.60
2018-08-31T09:41:42.921Z,23.60
2018-08-31T09:42:42.902Z,23.20
2018-08-31T09:43:42.943Z,22.40
2018-08-31T09:44:42.863Z,23.20
2018-08-31T09:45:42.845Z,23.40
2018-08-31T09:46:42.827Z,24.10
2018-08-31T09:47:42.806Z,24.00
2018-08-31T09:48:42.788Z,22.90
2018-08-31T09:49:42.875Z,23.40
2018-08-31T09:50:42.750Z,24.50
2018-08-31T09:51:42.730Z,25.20
2018-08-31T09:52:42.711Z,23.50
2018-08-31T09:53:42.693Z,24.30
2018-08-31T09:54:42.678Z,23.50
2018-08-31T09:55:42.655Z,23.80
2018-08-31T09:56:42.677Z,22.10
2018-08-31T09:57:42.618Z,23.50
2018-08-31T09:58:42.599Z,23.40
2018-08-31T09:59:42.583Z,24.00
2018-08-31T10:00:42.565Z,22.80
2018-08-31T10:01:42.543Z,23.90
2018-08-31T10:02:42.524Z,23.90
2018-08-31T10:03:42.505Z,23.00
2018-08-31T10:04:42.486Z,24.50
2018-08-31T10:05:42.469Z,23.80
2018-08-31T10:06:42.450Z,24.60
2018-08-31T10:07:42.431Z,22.80
2018-08-31T10:08:42.412Z,23.80
2018-08-31T10:09:42.395Z,24.10
2018-08-31T10:10:42.438Z,23.60
2018-08-31T10:11:42.361Z,23.80
2018-08-31T10:12:42.340Z,24.10
2018-08-31T10:13:42.322Z,24.80
2018-08-31T10:14:42.302Z,25.20
2018-08-31T10:15:42.282Z,25.20
2018-08-31T10:16:42.266Z,23.40
2018-08-31T10:17:42.246Z,25.40
2018-08-31T10:18:42.311Z,24.70
2018-08-31T10:19:42.208Z,25.80
2018-08-31T10:20:42.190Z,24.30
2018-08-31T10:21:42.171Z,24.60
2018-08-31T10:22:42.153Z,24.00
2018-08-31T10:23:42.135Z,24.60
2018-08-31T10:24:42.116Z,23.80
2018-08-31T10:25:42.101Z,25.60
2018-08-31T10:26:42.078Z,24.50
2018-08-31T10:27:42.059Z,24.80
2018-08-31T10:28:42.041Z,25.20
2018-08-31T10:29:42.022Z,24.10
2018-08-31T10:30:42.004Z,24.40
2018-08-31T10:31:41.984Z,24.50
2018-08-31T10:32:41.966Z,24.60
2018-08-31T10:33:41.949Z,23.80
2018-08-31T10:34:41.930Z,24.70
2018-08-31T10:35:41.910Z,24.60
2018-08-31T10:36:41.891Z,25.40
2018-08-31T10:37:41.873Z,24.00
2018-08-31T10:38:41.854Z,23.30
2018-08-31T10:39:41.835Z,24.60
2018-08-31T10:40:41.820Z,22.90
2018-08-31T10:41:41.799Z,24.80
2018-08-31T10:42:41.785Z,25.10
2018-08-31T10:43:41.761Z,24.90
2018-08-31T10:44:41.744Z,24.20
2018-08-31T10:45:41.726Z,25.00
2018-08-31T10:46:41.708Z,25.00
2018-08-31T10:47:41.687Z,24.20
2018-08-31T10:48:46.175Z,24.20
2018-08-31T10:49:41.651Z,24.00
2018-08-31T10:50:41.633Z,24.90
2018-08-31T10:51:41.614Z,25.20
2018-08-31T10:52:41.595Z,24.40
2018-08-31T10:53:41.577Z,24.20
2018-08-31T10:54:41.558Z,24.50
2018-08-31T10:55:41.539Z,24.20
2018-08-31T10:56:41.522Z,24.30
2018-08-31T10:57:41.504Z,24.50
2018-08-31T10:58:41.486Z,23.30
2018-08-31T10:59:41.465Z,24.90
2018-08-31T11:00:41.447Z,23.40
2018-08-31T11:01:41.429Z,24.20
2018-08-31T11:02:41.410Z,24.20
2018-08-31T11:03:41.395Z,24.30
2018-08-31T11:04:41.372Z,23.20
2018-08-31T11:05:41.353Z,23.20
2018-08-31T11:06:41.336Z,23.40
2018-08-31T11:07:41.315Z,24.10
2018-08-31T11:08:41.297Z,23.20
2018-08-31T11:09:41.280Z,23.50
2018-08-31T11:10:41.260Z,23.70
2018-08-31T11:11:41.263Z,23.60
2018-08-31T11:12:41.395Z,23.40
2018-08-31T11:13:41.207Z,23.70
2018-08-31T11:14:41.192Z,23.40
2018-08-31T11:15:41.167Z,22.50
2018-08-31T11:16:41.150Z,22.80
2018-08-31T11:17:41.130Z,24.00
2018-08-31T11:18:41.150Z,23.40
2018-08-31T11:19:41.096Z,23.80
2018-08-31T11:20:41.126Z,23.20
2018-08-31T11:21:41.058Z,23.70
2018-08-31T11:22:41.040Z,23.50
2018-08-31T11:23:41.020Z,24.10
2018-08-31T11:24:41.002Z,24.00
2018-08-31T11:25:40.983Z,23.40
2018-08-31T11:26:40.967Z,23.30
2018-08-31T11:27:40.975Z,23.10
2018-08-31T11:28:40.928Z,22.70
2018-08-31T11:29:40.909Z,23.50
2018-08-31T11:30:40.892Z,22.60
2018-08-31T11:31:40.873Z,22.90
2018-08-31T11:32:40.854Z,23.80
2018-08-31T11:33:40.849Z,22.00
2018-08-31T11:34:40.818Z,20.90
2018-08-31T11:35:40.800Z,22.20
2018-08-31T11:36:41.531Z,22.80
2018-08-31T11:37:40.762Z,23.50
2018-08-31T11:38:40.743Z,23.70
2018-08-31T11:39:40.728Z,21.70
2018-08-31T11:40:40.707Z,21.90
2018-08-31T11:41:40.688Z,21.00
2018-08-31T11:42:40.673Z,21.80
2018-08-31T11:43:40.650Z,22.40
2018-08-31T11:44:40.635Z,21.50
2018-08-31T11:45:40.614Z,21.40
2018-08-31T11:46:40.600Z,22.40
2018-08-31T11:47:40.576Z,21.80
2018-08-31T11:48:40.558Z,21.60
2018-08-31T11:49:40.541Z,20.80
2018-08-31T11:50:40.523Z,21.80
2018-08-31T11:51:40.540Z,20.00
2018-08-31T11:52:40.486Z,22.10
2018-08-31T11:53:40.467Z,21.70
2018-08-31T11:54:40.450Z,21.40
2018-08-31T11:55:40.430Z,20.90
2018-08-31T11:56:40.412Z,22.10
2018-08-31T11:57:40.394Z,22.10
2018-08-31T11:58:40.376Z,22.00
2018-08-31T11:59:40.358Z,21.40
2018-08-31T12:00:40.387Z,21.60
2018-08-31T12:01:40.323Z,21.90
2018-08-31T12:02:40.303Z,21.70
2018-08-31T12:03:40.284Z,22.30
2018-08-31T12:04:40.266Z,22.10
2018-08-31T12:05:40.248Z,21.30
2018-08-31T12:06:40.229Z,21.50
2018-08-31T12:07:40.213Z,22.80
2018-08-31T12:08:40.192Z,21.80
2018-08-31T12:09:40.174Z,22.40
2018-08-31T12:10:40.155Z,21.70
2018-08-31T12:11:40.136Z,21.00
2018-08-31T12:12:40.118Z,23.10
2018-08-31T12:13:40.100Z,21.60
2018-08-31T12:14:40.081Z,21.30
2018-08-31T12:15:40.062Z,21.50
2018-08-31T12:16:40.044Z,22.20
2018-08-31T12:17:40.033Z,21.90
2018-08-31T12:18:40.008Z,21.20
2018-08-31T12:19:41.490Z,22.10
2018-08-31T12:20:39.969Z,21.70
2018-08-31T12:21:39.951Z,22.20
2018-08-31T12:22:39.931Z,21.30
2018-08-31T12:23:39.912Z,23.10
2018-08-31T12:24:39.898Z,23.30
2018-08-31T12:25:39.876Z,23.30
2018-08-31T12:26:39.855Z,22.80
2018-08-31T12:27:39.836Z,22.10
2018-08-31T12:28:39.816Z,22.80
2018-08-31T12:29:39.798Z,23.50
2018-08-31T12:30:39.778Z,23.20
2018-08-31T12:31:39.758Z,22.90
2018-08-31T12:32:39.738Z,22.50
2018-08-31T12:33:39.720Z,23.10
2018-08-31T12:34:39.700Z,23.20
2018-08-31T12:35:39.679Z,22.50
2018-08-31T12:36:39.661Z,24.20
2018-08-31T12:37:39.642Z,23.90
2018-08-31T12:38:39.621Z,22.90
2018-08-31T12:39:39.601Z,23.10
2018-08-31T12:40:39.583Z,21.40
2018-08-31T12:41:39.564Z,23.20
2018-08-31T12:42:39.542Z,23.60
2018-08-31T12:43:39.542Z,21.90
2018-08-31T12:44:39.503Z,21.60
2018-08-31T12:45:39.483Z,22.00
2018-08-31T12:46:39.463Z,20.20
2018-08-31T12:47:39.444Z,21.10
2018-08-31T12:48:39.427Z,22.10
2018-08-31T12:49:39.403Z,20.40
2018-08-31T12:50:39.386Z,23.10
2018-08-31T12:51:39.380Z,20.20
2018-08-31T12:52:39.343Z,19.10
2018-08-31T12:53:39.323Z,18.20
2018-08-31T12:54:39.304Z,17.70
2018-08-31T12:55:39.282Z,18.80
2018-08-31T12:56:39.263Z,20.00
2018-08-31T12:57:39.243Z,18.10